Time;durP1;ratioP1;P1;durP2;ratioP2;P2;SDS_P1;SDS_P2;PMS_P1;PMS_P2;Temp;Humidity;BMP_temperature;BMP_pressure;BME280_temperature;BME280_humidity;BME280_pressure;Samples;Min_cycle;Max_cycle;Signal;HPM_P1;HPM_P2
2024/04/15 00:01:01;;;;;;;2.60;0.30;;;17.10;71.40;;;;;;5428922;26;20395;-67
2024/04/15 00:03:27;;;;;;;5.47;0.50;;;17.10;70.90;;;;;;5419257;26;19999;-67
2024/04/15 00:05:52;;;;;;;5.25;0.60;;;17.10;71.10;;;;;;5429318;26;20003;-67
2024/04/15 00:08:18;;;;;;;1.35;0.40;;;17.10;71.10;;;;;;5430813;26;20327;-65
2024/04/15 00:10:43;;;;;;;2.25;0.35;;;17.10;70.70;;;;;;5432111;26;20080;-66
2024/04/15 00:13:09;;;;;;;2.58;0.50;;;17.10;70.90;;;;;;5419408;26;20071;-67
2024/04/15 00:15:34;;;;;;;5.13;0.50;;;17.00;70.60;;;;;;5432039;26;20010;-67
2024/04/15 00:18:00;;;;;;;2.38;0.30;;;17.10;71.10;;;;;;5431146;26;20437;-67
2024/04/15 00:20:27;;;;;;;2.72;0.40;;;17.00;70.70;;;;;;5431000;26;20457;-66
2024/04/15 00:22:59;;;;;;;2.17;0.50;;;17.00;70.70;;;;;;5434937;26;20010;-68
2024/04/15 00:25:25;;;;;;;5.70;0.50;;;17.00;71.40;;;;;;5434479;26;20063;-67
2024/04/15 00:27:50;;;;;;;3.78;0.43;;;17.00;71.40;;;;;;5436932;26;20014;-67
2024/04/15 00:30:16;;;;;;;2.47;0.40;;;17.00;71.30;;;;;;5439253;26;20364;-67
2024/04/15 00:32:42;;;;;;;2.88;0.47;;;17.00;71.30;;;;;;5428851;26;20003;-66
2024/04/15 00:35:08;;;;;;;5.45;0.40;;;17.10;72.00;;;;;;5416038;26;20006;-67
2024/04/15 00:37:33;;;;;;;10.38;0.75;;;17.10;71.90;;;;;;5414928;26;20007;-67
2024/04/15 00:39:59;;;;;;;2.35;0.43;;;17.10;72.20;;;;;;5426779;26;20490;-67
2024/04/15 00:42:24;;;;;;;4.68;0.30;;;17.10;72.40;;;;;;5437234;26;19999;-67
2024/04/15 00:44:50;;;;;;;4.97;0.40;;;17.00;72.30;;;;;;5435564;26;20006;-66
2024/04/15 00:47:17;;;;;;;5.75;0.55;;;16.90;72.80;;;;;;5443824;26;20015;-67
2024/04/15 00:49:43;;;;;;;5.28;0.60;;;16.90;72.70;;;;;;5445532;26;20014;-67
2024/04/15 00:52:10;;;;;;;6.82;0.50;;;16.90;72.70;;;;;;5434239;26;20433;-67
2024/04/15 00:54:38;;;;;;;2.83;0.40;;;16.90;72.70;;;;;;5441228;26;20001;-67
2024/04/15 00:57:04;;;;;;;3.63;0.30;;;16.80;72.60;;;;;;5447775;26;19995;-67
2024/04/15 00:59:30;;;;;;;5.07;0.47;;;16.80;72.40;;;;;;5443446;26;20144;-67
2024/04/15 01:01:58;;;;;;;3.70;0.40;;;16.80;73.10;;;;;;5436105;26;20927;-67
2024/04/15 01:04:24;;;;;;;4.50;0.40;;;16.80;73.20;;;;;;5443046;26;20050;-67
2024/04/15 01:06:51;;;;;;;3.80;0.40;;;16.80;73.10;;;;;;5434404;26;20010;-67
2024/04/15 01:09:17;;;;;;;;;;;16.80;73.10;;;;;;5406984;26;20007;-67
2024/04/15 01:11:43;;;;;;;3.55;0.30;;;16.80;72.80;;;;;;5437771;26;19939;-65
2024/04/15 01:14:08;;;;;;;9.73;0.90;;;16.80;72.40;;;;;;5444050;26;19998;-65
2024/04/15 01:16:38;;;;;;;2.03;0.47;;;16.80;72.60;;;;;;5444723;26;20496;-67
2024/04/15 01:19:04;;;;;;;3.30;0.40;;;16.80;72.70;;;;;;5431851;26;20011;-63
2024/04/15 01:21:29;;;;;;;2.58;0.30;;;16.80;72.80;;;;;;5416767;26;20014;-67
2024/04/15 01:24:05;;;;;;;3.10;0.50;;;16.80;73.00;;;;;;5452370;26;20015;-66
2024/04/15 01:26:31;;;;;;;3.03;0.43;;;16.80;73.10;;;;;;5403063;26;20433;-67
2024/04/15 01:28:57;;;;;;;4.68;0.50;;;16.80;73.10;;;;;;5416045;26;20007;-67
2024/04/15 01:31:23;;;;;;;5.05;0.60;;;16.80;73.10;;;;;;5435675;26;20003;-65
2024/04/15 01:33:49;;;;;;;4.05;0.40;;;16.80;73.00;;;;;;5431559;26;20449;-66
2024/04/15 01:36:14;;;;;;;2.95;0.60;;;16.80;72.60;;;;;;5431558;26;20014;-67
2024/04/15 01:38:40;;;;;;;2.28;0.50;;;16.80;72.50;;;;;;5441619;26;20039;-67
2024/04/15 01:41:06;;;;;;;3.55;0.70;;;16.80;72.80;;;;;;5441428;26;19999;-67
2024/04/15 01:43:31;;;;;;;5.78;0.60;;;16.70;72.40;;;;;;5444966;26;20374;-66
2024/04/15 01:45:57;;;;;;;4.45;0.70;;;16.70;72.30;;;;;;5448896;26;20031;-67
2024/04/15 01:48:22;;;;;;;2.85;0.50;;;16.70;72.00;;;;;;5437098;26;20476;-67
2024/04/15 01:50:48;;;;;;;3.90;0.60;;;16.70;72.40;;;;;;5448025;26;20014;-67
2024/04/15 01:53:15;;;;;;;3.58;0.57;;;16.70;72.50;;;;;;5433759;26;20003;-67
2024/04/15 01:55:42;;;;;;;1.92;0.40;;;16.70;72.00;;;;;;5439960;26;19998;-67
2024/04/15 01:58:08;;;;;;;2.22;0.35;;;16.70;71.90;;;;;;5445671;26;20511;-64
2024/04/15 02:00:33;;;;;;;2.03;0.40;;;16.70;72.00;;;;;;5432731;26;20051;-66
2024/04/15 02:02:59;;;;;;;4.32;0.52;;;16.70;72.10;;;;;;5446045;26;20352;-66
2024/04/15 02:05:25;;;;;;;2.90;0.50;;;16.70;72.80;;;;;;5451781;26;20013;-66
2024/04/15 02:07:50;;;;;;;2.55;0.50;;;16.60;72.50;;;;;;5454574;26;20010;-66
2024/04/15 02:10:16;;;;;;;7.70;0.50;;;16.60;72.20;;;;;;5444164;26;20010;-67
2024/04/15 02:12:41;;;;;;;2.03;0.40;;;16.70;72.30;;;;;;5435478;26;20010;-66
2024/04/15 02:15:07;;;;;;;1.67;0.30;;;16.70;72.60;;;;;;5451458;26;19995;-67
2024/04/15 02:17:32;;;;;;;4.45;0.50;;;16.70;72.60;;;;;;5453782;26;19993;-67
2024/04/15 02:19:58;;;;;;;2.13;0.40;;;16.70;72.40;;;;;;5434721;26;20048;-66
2024/04/15 02:22:30;;;;;;;5.43;0.55;;;16.70;72.50;;;;;;5449457;26;20043;-66
2024/04/15 02:24:56;;;;;;;2.42;0.40;;;16.70;72.80;;;;;;5436459;26;19995;-67
2024/04/15 02:27:21;;;;;;;3.70;0.47;;;16.70;72.90;;;;;;5443657;26;20013;-67
2024/04/15 02:29:53;;;;;;;4.53;0.60;;;16.70;73.10;;;;;;5446542;26;20002;-66
2024/04/15 02:32:19;;;;;;;7.78;0.52;;;16.60;73.00;;;;;;5422689;26;20433;-67
2024/04/15 02:34:45;;;;;;;1.88;0.30;;;16.60;73.10;;;;;;5453342;26;19998;-67
2024/04/15 02:37:11;;;;;;;1.55;0.22;;;16.60;73.10;;;;;;5438506;26;20075;-67
2024/04/15 02:39:38;;;;;;;4.22;0.50;;;16.60;73.50;;;;;;5449961;26;20010;-67
2024/04/15 02:42:04;;;;;;;;;;;16.60;73.10;;;;;;5444691;26;19995;-67
2024/04/15 02:44:30;;;;;;;2.42;0.50;;;16.60;73.50;;;;;;5437364;26;20327;-66
2024/04/15 02:46:55;;;;;;;4.35;0.52;;;16.50;73.80;;;;;;5445091;26;20050;-67
2024/04/15 02:49:21;;;;;;;4.70;0.57;;;16.40;73.80;;;;;;5416210;26;20534;-66
2024/04/15 02:51:46;;;;;;;3.90;0.50;;;16.50;74.00;;;;;;5434952;26;20003;-67
2024/04/15 02:54:12;;;;;;;1.98;0.43;;;16.40;74.50;;;;;;5434296;26;20003;-66
2024/04/15 02:56:38;;;;;;;3.65;0.38;;;16.50;74.10;;;;;;5436889;26;20043;-66
2024/04/15 02:59:03;;;;;;;5.05;0.70;;;16.50;74.10;;;;;;5436752;26;20043;-66
2024/04/15 03:01:29;;;;;;;2.45;0.60;;;16.40;72.30;;;;;;5435825;26;19999;-66
2024/04/15 03:04:01;;;;;;;4.25;0.70;;;16.30;72.50;;;;;;5438642;26;20496;-67
2024/04/15 03:06:27;;;;;;;2.45;0.50;;;16.20;73.30;;;;;;5443235;26;20006;-67
2024/04/15 03:08:59;;;;;;;5.50;0.60;;;16.10;73.80;;;;;;5441101;26;20009;-66
2024/04/15 03:11:25;;;;;;;2.97;0.50;;;16.10;74.30;;;;;;5438280;26;20054;-66
2024/04/15 03:13:52;;;;;;;7.32;0.70;;;16.10;74.40;;;;;;5439988;26;20003;-65
2024/04/15 03:16:18;;;;;;;3.25;0.52;;;16.00;74.70;;;;;;5436284;26;20072;-65
2024/04/15 03:18:45;;;;;;;3.83;0.50;;;16.00;75.20;;;;;;5434934;26;20066;-66
2024/04/15 03:21:11;;;;;;;3.15;0.60;;;15.90;75.90;;;;;;5427182;26;20410;-66
2024/04/15 03:23:36;;;;;;;4.55;0.70;;;15.90;76.30;;;;;;5445002;26;20067;-66
2024/04/15 03:26:02;;;;;;;5.38;0.70;;;15.80;76.60;;;;;;5445031;26;20061;-66
2024/04/15 03:28:28;;;;;;;4.72;0.60;;;15.80;76.80;;;;;;5440798;26;20007;-66
2024/04/15 03:30:54;;;;;;;5.00;0.70;;;15.80;77.30;;;;;;5445297;26;20034;-66
2024/04/15 03:33:20;;;;;;;2.97;0.50;;;15.80;77.60;;;;;;5404976;26;20003;-65
2024/04/15 03:35:45;;;;;;;2.85;0.60;;;15.70;77.60;;;;;;5442629;26;20010;-67
2024/04/15 03:38:11;;;;;;;11.27;1.20;;;15.70;77.70;;;;;;5446795;26;20072;-67
2024/04/15 03:40:36;;;;;;;5.40;0.77;;;15.70;77.80;;;;;;5436207;26;20079;-67
2024/04/15 03:43:02;;;;;;;5.40;0.80;;;15.70;78.20;;;;;;5449920;26;20038;-67
2024/04/15 03:45:28;;;;;;;5.82;0.70;;;15.60;77.90;;;;;;5451674;26;19998;-66
2024/04/15 03:47:54;;;;;;;5.65;0.90;;;15.60;78.10;;;;;;5415829;26;19998;-66
2024/04/15 03:50:23;;;;;;;4.70;0.90;;;15.60;78.00;;;;;;5443126;26;20002;-66
2024/04/15 03:52:49;;;;;;;3.65;0.60;;;15.50;78.20;;;;;;5447692;26;20405;-66
2024/04/15 03:55:15;;;;;;;6.20;0.75;;;15.50;78.60;;;;;;5442637;26;20021;-67
2024/04/15 03:57:41;;;;;;;6.53;0.80;;;15.50;78.70;;;;;;5436747;26;20370;-66
2024/04/15 04:00:07;;;;;;;4.13;0.70;;;15.40;79.20;;;;;;5433704;26;20214;-65
2024/04/15 04:02:33;;;;;;;3.47;0.60;;;15.40;79.20;;;;;;5441093;26;20031;-66
2024/04/15 04:05:05;;;;;;;3.47;0.70;;;15.30;79.10;;;;;;5441940;26;20001;-66
2024/04/15 04:07:31;;;;;;;5.72;0.75;;;15.20;79.30;;;;;;5439562;26;20038;-66
2024/04/15 04:09:57;;;;;;;6.55;0.73;;;15.20;79.30;;;;;;5411606;26;20014;-66
2024/04/15 04:12:23;;;;;;;3.20;0.52;;;15.20;79.20;;;;;;5385703;26;19999;-66
2024/04/15 04:14:48;;;;;;;5.65;0.73;;;15.10;79.50;;;;;;5388337;26;20004;-66
2024/04/15 04:17:14;;;;;;;4.95;0.80;;;15.10;79.60;;;;;;5437620;26;19990;-66
2024/04/15 04:19:39;;;;;;;10.93;0.82;;;15.10;79.90;;;;;;5448865;26;20002;-67
2024/04/15 04:22:05;;;;;;;2.30;0.47;;;15.00;79.70;;;;;;5439498;26;20003;-67
2024/04/15 04:24:38;;;;;;;6.50;0.70;;;15.00;80.00;;;;;;5440222;26;20075;-66
2024/04/15 04:27:04;;;;;;;4.82;0.70;;;15.00;80.00;;;;;;5437492;26;20074;-63
2024/04/15 04:29:33;;;;;;;3.63;0.73;;;15.00;80.20;;;;;;5451837;26;20014;-66
2024/04/15 04:31:58;;;;;;;3.17;0.60;;;15.00;80.10;;;;;;5448700;26;20013;-66
2024/04/15 04:34:24;;;;;;;2.35;0.50;;;15.00;80.10;;;;;;5436063;26;20327;-67
2024/04/15 04:36:49;;;;;;;4.43;0.77;;;15.00;79.60;;;;;;5416210;26;20319;-65
2024/04/15 04:39:15;;;;;;;5.60;0.70;;;15.00;80.10;;;;;;5436887;26;20067;-67
2024/04/15 04:41:40;;;;;;;4.75;0.75;;;15.00;80.10;;;;;;5392419;26;20004;-66
2024/04/15 04:44:06;;;;;;;4.68;0.70;;;15.00;79.90;;;;;;5434025;26;19999;-67
2024/04/15 04:46:31;;;;;;;3.72;0.60;;;15.00;80.30;;;;;;5448114;26;20090;-66
2024/04/15 04:48:57;;;;;;;4.50;0.60;;;15.00;80.40;;;;;;5450437;26;20014;-67
2024/04/15 04:51:23;;;;;;;5.45;0.70;;;15.10;79.90;;;;;;5454455;26;20006;-66
2024/04/15 04:53:48;;;;;;;5.45;0.70;;;15.10;80.00;;;;;;5450409;26;20013;-66
2024/04/15 04:56:15;;;;;;;3.65;0.63;;;15.10;80.10;;;;;;5442849;26;20010;-66
2024/04/15 04:58:42;;;;;;;6.63;0.70;;;15.10;80.40;;;;;;5448616;26;20137;-67
2024/04/15 05:01:16;;;;;;;3.00;0.43;;;15.10;80.00;;;;;;5447875;26;20063;-66
2024/04/15 05:03:46;;;;;;;3.83;0.70;;;15.10;79.50;;;;;;5437422;26;19999;-66
2024/04/15 05:06:13;;;;;;;9.43;1.00;;;15.10;79.60;;;;;;5418394;26;20026;-67
2024/04/15 05:08:39;;;;;;;2.80;0.50;;;15.20;79.80;;;;;;5440614;26;19999;-66
2024/04/15 05:11:05;;;;;;;3.83;0.55;;;15.10;80.00;;;;;;5454732;26;19998;-66
2024/04/15 05:13:38;;;;;;;2.92;0.60;;;15.10;79.50;;;;;;5443396;26;20114;-67
2024/04/15 05:16:08;;;;;;;3.67;0.50;;;15.10;79.60;;;;;;5392472;26;20336;-66
2024/04/15 05:18:35;;;;;;;4.30;0.60;;;15.10;79.80;;;;;;5419634;26;20035;-66
2024/04/15 05:21:01;;;;;;;6.18;0.75;;;15.00;80.50;;;;;;5433389;26;20121;-66
2024/04/15 05:23:27;;;;;;;3.30;0.50;;;15.00;80.90;;;;;;5445297;26;20014;-66
2024/04/15 05:26:00;;;;;;;3.30;0.70;;;15.00;80.90;;;;;;5444886;26;20009;-66
2024/04/15 05:28:26;;;;;;;3.75;0.77;;;15.00;81.40;;;;;;5423330;26;20008;-66
2024/04/15 05:30:53;;;;;;;15.13;1.05;;;15.10;81.50;;;;;;5438701;26;19999;-66
2024/04/15 05:33:20;;;;;;;3.17;0.57;;;15.10;80.70;;;;;;5448482;26;20009;-66
2024/04/15 05:35:45;;;;;;;6.28;0.75;;;15.10;80.70;;;;;;5413492;26;20010;-67
2024/04/15 05:38:12;;;;;;;3.35;0.60;;;15.10;80.40;;;;;;5379916;26;20806;-66
2024/04/15 05:40:38;;;;;;;5.10;0.65;;;15.20;80.30;;;;;;5391216;26;19992;-66
2024/04/15 05:43:07;;;;;;;6.03;0.65;;;15.10;80.00;;;;;;5422725;26;19995;-66
2024/04/15 05:45:33;;;;;;;3.90;0.70;;;15.10;80.20;;;;;;5455759;26;19994;-67
2024/04/15 05:47:59;;;;;;;2.50;0.60;;;15.20;80.60;;;;;;5441547;26;21151;-67
2024/04/15 05:50:24;;;;;;;4.70;0.65;;;15.30;80.60;;;;;;5438981;26;20460;-67
2024/04/15 05:52:50;;;;;;;5.25;0.73;;;15.30;79.50;;;;;;5445255;26;20030;-66
2024/04/15 05:55:15;;;;;;;4.38;0.70;;;15.40;79.80;;;;;;5442705;26;20007;-66
2024/04/15 05:57:41;;;;;;;6.70;0.80;;;15.40;80.00;;;;;;5449724;26;20034;-67
2024/04/15 06:00:07;;;;;;;3.55;0.45;;;15.50;79.80;;;;;;5450561;26;20013;-67
2024/04/15 06:02:33;;;;;;;5.35;0.77;;;15.40;80.00;;;;;;5449564;26;20326;-66
2024/04/15 06:04:58;;;;;;;10.02;1.02;;;15.40;79.90;;;;;;5439496;26;20034;-66
2024/04/15 06:07:24;;;;;;;3.38;0.43;;;15.30;79.70;;;;;;5442673;26;20031;-66
2024/04/15 06:09:50;;;;;;;4.70;0.73;;;15.30;80.20;;;;;;5402679;26;20076;-66
2024/04/15 06:12:16;;;;;;;3.67;0.65;;;15.30;81.00;;;;;;5441434;26;19999;-66
2024/04/15 06:14:41;;;;;;;3.28;0.50;;;15.30;79.70;;;;;;5418966;26;20031;-66
2024/04/15 06:17:07;;;;;;;4.15;0.50;;;15.20;79.40;;;;;;5402952;26;20072;-67
2024/04/15 06:19:33;;;;;;;1.38;0.35;;;15.20;79.00;;;;;;5387996;26;20003;-66
2024/04/15 06:22:00;;;;;;;6.93;0.60;;;15.10;79.10;;;;;;5432221;26;19995;-67
2024/04/15 06:24:26;;;;;;;3.95;0.50;;;15.10;79.90;;;;;;5439781;26;20398;-66
2024/04/15 06:26:58;;;;;;;4.05;0.47;;;15.10;79.10;;;;;;5448015;26;20007;-66
2024/04/15 06:29:24;;;;;;;2.58;0.40;;;15.00;79.20;;;;;;5451218;26;20010;-65
2024/04/15 06:31:51;;;;;;;2.97;0.30;;;14.90;79.40;;;;;;5445630;26;19999;-66
2024/04/15 06:34:19;;;;;;;1.70;0.52;;;14.90;80.40;;;;;;5441288;26;19998;-67
2024/04/15 06:36:45;;;;;;;3.10;0.50;;;14.90;80.30;;;;;;5445920;26;19995;-66
2024/04/15 06:39:11;;;;;;;7.63;0.77;;;14.90;80.30;;;;;;5428573;26;20360;-67
2024/04/15 06:41:37;;;;;;;4.00;0.50;;;14.90;80.40;;;;;;5449187;26;20006;-67
2024/04/15 06:44:02;;;;;;;1.15;0.30;;;14.90;79.80;;;;;;5444399;26;20027;-67
2024/04/15 06:46:29;;;;;;;3.42;0.35;;;14.80;78.80;;;;;;5446027;26;20018;-67
2024/04/15 06:48:54;;;;;;;2.97;0.40;;;14.80;79.10;;;;;;5446315;26;20124;-66
2024/04/15 06:51:20;;;;;;;3.00;0.30;;;14.80;79.10;;;;;;5443740;26;20131;-66
2024/04/15 06:53:45;;;;;;;2.20;0.32;;;14.80;79.40;;;;;;5446161;26;20010;-66
2024/04/15 06:56:11;;;;;;;3.83;0.30;;;14.90;78.70;;;;;;5438600;26;20007;-66
2024/04/15 06:58:37;;;;;;;1.27;0.20;;;14.90;78.30;;;;;;5450098;26;20021;-66
2024/04/15 07:01:03;;;;;;;1.30;0.30;;;15.00;78.40;;;;;;5439595;26;19999;-66
2024/04/15 07:03:29;;;;;;;2.13;0.25;;;15.10;78.90;;;;;;5446225;26;20002;-66
2024/04/15 07:05:54;;;;;;;4.13;0.38;;;15.20;79.00;;;;;;5447616;26;20035;-67
2024/04/15 07:08:20;;;;;;;11.18;0.77;;;15.20;77.70;;;;;;5441884;26;19999;-67
2024/04/15 07:10:45;;;;;;;3.03;0.30;;;15.30;77.70;;;;;;5442872;26;20018;-66
2024/04/15 07:13:11;;;;;;;5.40;0.60;;;15.30;77.50;;;;;;5449903;26;20002;-66
2024/04/15 07:15:37;;;;;;;2.85;0.57;;;15.40;78.50;;;;;;5444936;26;20484;-66
2024/04/15 07:18:03;;;;;;;2.80;0.43;;;15.40;78.60;;;;;;5443703;26;19991;-67
2024/04/15 07:20:29;;;;;;;3.92;0.63;;;15.60;78.70;;;;;;5444459;26;20434;-66
2024/04/15 07:23:01;;;;;;;2.28;0.40;;;15.90;78.50;;;;;;5445418;26;19994;-66
2024/04/15 07:25:27;;;;;;;4.10;0.47;;;16.20;77.10;;;;;;5444288;26;20079;-66
2024/04/15 07:27:53;;;;;;;1.65;0.30;;;16.20;75.60;;;;;;5442559;26;20015;-66
2024/04/15 07:30:18;;;;;;;2.92;0.20;;;16.10;73.40;;;;;;5453550;26;20421;-66
2024/04/15 07:32:45;;;;;;;0.73;0.10;;;16.10;73.50;;;;;;5441570;26;20048;-66
2024/04/15 07:35:11;;;;;;;1.23;0.20;;;16.00;73.70;;;;;;5438310;26;19998;-67
2024/04/15 07:37:37;;;;;;;1.50;0.20;;;16.10;73.40;;;;;;5453941;26;20002;-67
2024/04/15 07:40:02;;;;;;;0.63;0.10;;;16.20;73.40;;;;;;5452647;26;19995;-65
2024/04/15 07:42:28;;;;;;;2.13;0.20;;;16.40;70.50;;;;;;5417947;26;20068;-66
2024/04/15 07:44:54;;;;;;;0.73;0.10;;;16.30;69.30;;;;;;5436783;26;20023;-66
2024/04/15 07:47:19;;;;;;;2.30;0.13;;;16.20;68.30;;;;;;5438024;26;20079;-66
2024/04/15 07:49:51;;;;;;;1.60;0.32;;;16.20;69.20;;;;;;5437492;26;20137;-67
2024/04/15 07:52:17;;;;;;;1.40;0.20;;;16.10;68.60;;;;;;5440822;26;20089;-66
2024/04/15 07:54:43;;;;;;;1.77;0.20;;;16.00;68.70;;;;;;5438481;26;19995;-67
2024/04/15 07:57:15;;;;;;;1.02;0.10;;;15.70;70.20;;;;;;5449714;26;19999;-66
2024/04/15 07:59:40;;;;;;;9.55;0.63;;;15.60;71.60;;;;;;5432360;26;19999;-66
2024/04/15 08:02:06;;;;;;;4.97;0.35;;;15.70;72.80;;;;;;5443706;26;19994;-65
2024/04/15 08:04:32;;;;;;;0.77;0.15;;;15.90;73.40;;;;;;5454252;26;19994;-66
2024/04/15 08:06:57;;;;;;;0.55;0.10;;;15.90;71.50;;;;;;5453013;26;20034;-66
2024/04/15 08:09:23;;;;;;;4.20;0.20;;;15.90;71.70;;;;;;5436287;26;21181;-67
2024/04/15 08:11:48;;;;;;;0.93;0.08;;;15.80;70.30;;;;;;5443868;26;20010;-67
2024/04/15 08:14:14;;;;;;;0.57;0.10;;;15.70;69.90;;;;;;5431487;26;20026;-68
2024/04/15 08:16:39;;;;;;;2.03;0.20;;;15.80;70.20;;;;;;5448246;26;20856;-66
2024/04/15 08:19:05;;;;;;;1.52;0.10;;;15.60;70.10;;;;;;5444904;26;19999;-67
2024/04/15 08:21:30;;;;;;;0.17;0.10;;;15.70;71.10;;;;;;5448255;26;19999;-66
2024/04/15 08:23:56;;;;;;;1.02;0.10;;;15.50;68.70;;;;;;5454045;26;20094;-67
2024/04/15 08:26:22;;;;;;;3.22;0.10;;;15.40;69.00;;;;;;5449814;26;19994;-67
2024/04/15 08:28:47;;;;;;;0.88;0.20;;;15.40;69.90;;;;;;5413188;26;19995;-67
2024/04/15 08:31:13;;;;;;;0.70;0.30;;;15.50;69.70;;;;;;5449293;26;20042;-66
2024/04/15 08:33:39;;;;;;;1.23;0.00;;;15.50;68.40;;;;;;5425528;26;20067;-67
2024/04/15 08:36:05;;;;;;;2.00;0.22;;;15.30;68.80;;;;;;5438055;26;20006;-67
2024/04/15 08:38:31;;;;;;;2.17;0.10;;;15.20;69.20;;;;;;5445517;26;20091;-67
2024/04/15 08:41:00;;;;;;;0.47;0.10;;;15.10;69.90;;;;;;5452313;26;20464;-67
2024/04/15 08:43:26;;;;;;;1.80;0.10;;;15.10;69.60;;;;;;5446514;26;20435;-67
2024/04/15 08:46:03;;;;;;;2.03;0.10;;;15.30;70.60;;;;;;5421261;26;19995;-67
2024/04/15 08:48:29;;;;;;;0.08;0.00;;;15.50;69.80;;;;;;5436093;26;20011;-67
2024/04/15 08:50:55;;;;;;;0.10;0.00;;;15.60;69.40;;;;;;5447444;26;19999;-69
2024/04/15 08:53:21;;;;;;;0.38;0.03;;;15.60;70.20;;;;;;5456750;26;20013;-67
2024/04/15 08:55:47;;;;;;;0.70;0.00;;;15.60;69.00;;;;;;5441963;26;20349;-67
2024/04/15 08:58:13;;;;;;;1.08;0.10;;;15.60;69.00;;;;;;5440033;26;20013;-68
2024/04/15 09:00:40;;;;;;;0.40;0.13;;;15.90;70.10;;;;;;5419713;26;20007;-70
2024/04/15 09:03:06;;;;;;;2.35;0.20;;;16.00;69.70;;;;;;5440097;26;20010;-67
2024/04/15 09:05:33;;;;;;;2.08;0.13;;;16.10;68.00;;;;;;5447826;26;20010;-68
2024/04/15 09:07:58;;;;;;;0.63;0.10;;;16.10;67.30;;;;;;5449149;26;20015;-68
2024/04/15 09:10:24;;;;;;;1.95;0.20;;;16.20;67.50;;;;;;5439399;26;20473;-68
2024/04/15 09:12:50;;;;;;;1.48;0.13;;;16.30;68.30;;;;;;5445339;26;20506;-66
2024/04/15 09:15:20;;;;;;;1.70;0.10;;;16.50;66.90;;;;;;5422934;26;20014;-65
2024/04/15 09:17:46;;;;;;;3.03;0.15;;;16.80;67.90;;;;;;5453076;26;20508;-67
2024/04/15 09:20:12;;;;;;;1.75;0.08;;;16.90;67.50;;;;;;5441108;26;20011;-68
2024/04/15 09:22:38;;;;;;;0.75;0.10;;;17.00;64.30;;;;;;5439860;26;20421;-67
2024/04/15 09:25:11;;;;;;;0.05;0.00;;;16.90;64.80;;;;;;5456099;26;20606;-65
2024/04/15 09:27:36;;;;;;;1.02;0.13;;;17.00;65.50;;;;;;5419125;26;19999;-67
2024/04/15 09:30:10;;;;;;;1.20;0.13;;;17.10;65.60;;;;;;5451155;26;20009;-68
2024/04/15 09:32:36;;;;;;;2.20;0.10;;;17.30;65.10;;;;;;5415095;26;20056;-67
2024/04/15 09:35:04;;;;;;;0.10;0.10;;;17.50;65.20;;;;;;5404229;26;20034;-68
2024/04/15 09:37:31;;;;;;;3.22;0.10;;;17.70;64.40;;;;;;5388732;26;19991;-68
2024/04/15 09:39:57;;;;;;;4.32;0.20;;;17.80;64.80;;;;;;5411715;26;20032;-67
2024/04/15 09:42:24;;;;;;;0.05;0.00;;;17.90;62.40;;;;;;5446445;26;21472;-66
2024/04/15 09:44:51;;;;;;;1.55;0.20;;;17.80;61.00;;;;;;5452822;26;20009;-67
2024/04/15 09:47:18;;;;;;;0.45;0.10;;;17.70;60.60;;;;;;5451074;26;19999;-68
2024/04/15 09:49:46;;;;;;;9.55;0.60;;;17.50;60.40;;;;;;5450452;26;20013;-67
2024/04/15 09:52:20;;;;;;;1.45;0.20;;;17.50;62.50;;;;;;5443829;26;20452;-68
2024/04/15 09:54:47;;;;;;;1.33;0.20;;;17.50;61.70;;;;;;5451501;26;20468;-69
2024/04/15 09:57:19;;;;;;;0.73;0.10;;;17.40;59.90;;;;;;5415721;26;20091;-69
2024/04/15 09:59:51;;;;;;;2.38;0.10;;;17.50;60.60;;;;;;5446489;26;20008;-71
2024/04/15 10:02:27;;;;;;;0.88;0.10;;;17.60;60.20;;;;;;5452260;26;19994;-69
2024/04/15 10:04:57;;;;;;;1.95;0.20;;;17.60;60.30;;;;;;5439441;26;20014;-69
2024/04/15 10:07:26;;;;;;;0.43;0.00;;;17.60;58.80;;;;;;5452146;26;20030;-68
2024/04/15 10:09:52;;;;;;;0.00;0.00;;;17.50;59.10;;;;;;5457485;26;19998;-67
2024/04/15 10:12:19;;;;;;;0.95;0.00;;;17.60;59.10;;;;;;5443431;26;20071;-68
2024/04/15 10:14:45;;;;;;;0.28;0.10;;;17.70;58.50;;;;;;5421735;26;20010;-67
2024/04/15 10:17:10;;;;;;;0.73;0.10;;;17.70;57.50;;;;;;5441652;26;20002;-68
2024/04/15 10:19:36;;;;;;;0.98;0.20;;;17.80;57.80;;;;;;5429122;26;19998;-68
2024/04/15 10:22:02;;;;;;;1.15;0.20;;;18.00;58.20;;;;;;5453734;26;19999;-70
2024/04/15 10:24:34;;;;;;;1.60;0.17;;;17.90;56.70;;;;;;5452107;26;20090;-66
2024/04/15 10:27:03;;;;;;;1.75;0.10;;;17.90;57.00;;;;;;5442759;26;20442;-69
2024/04/15 10:29:32;;;;;;;0.57;0.00;;;17.90;56.80;;;;;;5449421;26;20805;-70
2024/04/15 10:32:09;;;;;;;0.43;0.03;;;18.10;58.00;;;;;;5444296;26;20458;-72
2024/04/15 10:34:41;;;;;;;4.13;0.10;;;18.20;58.50;;;;;;5453743;26;20432;-73
2024/04/15 10:37:14;;;;;;;0.25;0.05;;;18.10;57.10;;;;;;5447132;26;20079;-74
2024/04/15 10:39:45;;;;;;;3.60;0.10;;;18.10;58.00;;;;;;5453990;26;20582;-72
2024/04/15 10:42:12;;;;;;;6.78;0.43;;;18.30;58.10;;;;;;5443839;26;20009;-73
2024/04/15 10:44:37;;;;;;;0.35;0.10;;;18.40;57.50;;;;;;5447006;26;20002;-74
2024/04/15 10:47:04;;;;;;;0.00;0.00;;;18.50;56.40;;;;;;5440761;26;19999;-73
2024/04/15 10:49:30;;;;;;;0.30;0.00;;;18.50;55.40;;;;;;5448060;26;20047;-67
2024/04/15 10:51:55;;;;;;;0.65;0.10;;;18.70;56.00;;;;;;5451456;26;20011;-71
2024/04/15 10:54:21;;;;;;;0.28;0.03;;;18.70;55.10;;;;;;5447671;26;20026;-71
2024/04/15 10:56:47;;;;;;;2.30;0.17;;;18.70;54.40;;;;;;5447529;26;20514;-69
2024/04/15 10:59:15;;;;;;;0.10;0.00;;;18.70;56.20;;;;;;5450570;26;20410;-70
2024/04/15 11:01:45;;;;;;;0.98;0.10;;;18.90;54.60;;;;;;5438763;26;20026;-68
2024/04/15 11:04:11;;;;;;;1.60;0.10;;;19.10;55.10;;;;;;5388333;26;20006;-70
2024/04/15 11:06:37;;;;;;;0.40;0.10;;;19.30;55.20;;;;;;5430842;26;20006;-68
2024/04/15 11:09:04;;;;;;;4.75;0.20;;;19.30;54.30;;;;;;5439680;26;20026;-68
2024/04/15 11:11:32;;;;;;;3.42;0.10;;;19.40;53.70;;;;;;5417997;26;20839;-68
2024/04/15 11:13:58;;;;;;;1.20;0.20;;;19.50;54.50;;;;;;5455622;26;20011;-69
2024/04/15 11:16:24;;;;;;;12.10;0.60;;;19.40;52.70;;;;;;5448142;26;20068;-68
2024/04/15 11:19:06;;;;;;;0.50;0.20;;;19.30;52.80;;;;;;5447623;26;19998;-69
2024/04/15 11:21:32;;;;;;;2.05;0.10;;;19.20;53.00;;;;;;5455066;26;19998;-69
2024/04/15 11:23:57;;;;;;;1.40;0.10;;;19.20;55.50;;;;;;5446622;26;20009;-68
2024/04/15 11:26:23;;;;;;;0.52;0.00;;;19.30;53.80;;;;;;5443162;26;20127;-67
2024/04/15 11:28:49;;;;;;;3.50;0.10;;;19.30;54.10;;;;;;5451955;26;20013;-70
2024/04/15 11:31:15;;;;;;;0.03;0.00;;;19.40;54.10;;;;;;5453673;26;20049;-71
2024/04/15 11:33:41;;;;;;;2.92;0.05;;;19.40;52.50;;;;;;5451936;26;20010;-69
2024/04/15 11:36:14;;;;;;;1.55;0.10;;;19.40;52.70;;;;;;5451802;26;20518;-70
2024/04/15 11:38:40;;;;;;;0.85;0.20;;;19.20;53.30;;;;;;5440374;26;20003;-72
2024/04/15 11:41:06;;;;;;;1.73;0.10;;;19.20;53.20;;;;;;5446710;26;19999;-70
2024/04/15 11:43:33;;;;;;;0.50;0.00;;;19.30;54.40;;;;;;5437906;26;20091;-69
2024/04/15 11:45:59;;;;;;;0.85;0.00;;;19.30;51.30;;;;;;5446881;26;19999;-75
2024/04/15 11:48:25;;;;;;;5.25;0.28;;;19.10;51.10;;;;;;5449088;26;20010;-67
2024/04/15 11:50:53;;;;;;;0.65;0.00;;;19.00;51.50;;;;;;5408384;26;20003;-68
2024/04/15 11:53:25;;;;;;;1.13;0.20;;;19.10;52.50;;;;;;5421057;26;20010;-71
2024/04/15 11:55:53;;;;;;;3.15;0.10;;;18.90;53.30;;;;;;5434595;26;20458;-70
2024/04/15 11:58:21;;;;;;;3.35;0.10;;;18.90;54.60;;;;;;5437105;26;20075;-69
2024/04/15 12:00:47;;;;;;;0.77;0.00;;;18.90;53.80;;;;;;5446671;26;20003;-71
2024/04/15 12:03:12;;;;;;;0.00;0.00;;;18.90;53.40;;;;;;5440498;26;20075;-69
2024/04/15 12:05:39;;;;;;;0.08;0.00;;;18.80;53.50;;;;;;5447962;26;19999;-69
2024/04/15 12:08:06;;;;;;;0.13;0.00;;;18.80;53.80;;;;;;5438241;26;20014;-70
2024/04/15 12:10:34;;;;;;;0.73;0.00;;;18.80;54.40;;;;;;5438340;26;20007;-70
2024/04/15 12:13:00;;;;;;;2.28;0.30;;;18.80;53.20;;;;;;5439271;26;20010;-80
2024/04/15 12:15:25;;;;;;;0.10;0.00;;;18.70;52.80;;;;;;5444997;26;19999;-66
2024/04/15 12:17:51;;;;;;;2.40;0.20;;;18.60;53.20;;;;;;5433158;26;20051;-69
2024/04/15 12:20:18;;;;;;;4.43;0.10;;;18.30;53.20;;;;;;5434051;26;20009;-68
2024/04/15 12:22:44;;;;;;;0.75;0.05;;;18.40;54.40;;;;;;5427015;26;20003;-71
2024/04/15 12:25:09;;;;;;;1.05;0.10;;;18.40;54.60;;;;;;5411973;26;20481;-70
2024/04/15 12:27:44;;;;;;;0.75;0.10;;;18.30;54.40;;;;;;5430987;26;20396;-73
2024/04/15 12:30:10;;;;;;;0.55;0.10;;;18.30;54.60;;;;;;5428602;26;20523;-66
2024/04/15 12:32:38;;;;;;;2.25;0.10;;;18.50;54.70;;;;;;5431297;26;20009;-69
2024/04/15 12:35:04;;;;;;;2.25;0.20;;;18.60;54.90;;;;;;5432353;26;20131;-68
2024/04/15 12:37:30;;;;;;;2.20;0.17;;;18.90;54.30;;;;;;5403155;26;20452;-68
2024/04/15 12:39:55;;;;;;;0.13;0.00;;;19.00;54.60;;;;;;5434732;26;20003;-70
2024/04/15 12:42:21;;;;;;;2.13;0.22;;;19.00;53.40;;;;;;5400762;26;20011;-71
2024/04/15 12:44:46;;;;;;;1.08;0.20;;;19.10;54.20;;;;;;5417171;26;20018;-67